sensor_id;sensor_type;location;lat;lon;timestamp;P1;durP1;ratioP1;P2;durP2;ratioP2
20454;SDS011;10386;54.314;10.022;2023-09-18T00:00:33;11.70;;;8.68;;
20454;SDS011;10386;54.314;10.022;2023-09-18T00:03:01;15.93;;;9.15;;
20454;SDS011;10386;54.314;10.022;2023-09-18T00:05:30;12.20;;;9.00;;
20454;SDS011;10386;54.314;10.022;2023-09-18T00:07:57;11.10;;;8.35;;
20454;SDS011;10386;54.314;10.022;2023-09-18T00:10:25;13.27;;;8.65;;
20454;SDS011;10386;54.314;10.022;2023-09-18T00:12:52;12.25;;;8.48;;
20454;SDS011;10386;54.314;10.022;2023-09-18T00:15:19;12.75;;;9.05;;
20454;SDS011;10386;54.314;10.022;2023-09-18T00:17:46;12.52;;;7.70;;
20454;SDS011;10386;54.314;10.022;2023-09-18T00:20:13;10.20;;;8.43;;
20454;SDS011;10386;54.314;10.022;2023-09-18T00:22:40;15.13;;;9.35;;
20454;SDS011;10386;54.314;10.022;2023-09-18T00:25:08;15.27;;;9.15;;
20454;SDS011;10386;54.314;10.022;2023-09-18T00:27:34;12.65;;;8.05;;
20454;SDS011;10386;54.314;10.022;2023-09-18T00:30:05;14.95;;;9.02;;
20454;SDS011;10386;54.314;10.022;2023-09-18T00:32:33;12.07;;;8.93;;
20454;SDS011;10386;54.314;10.022;2023-09-18T00:35:02;14.07;;;8.63;;
20454;SDS011;10386;54.314;10.022;2023-09-18T00:37:29;12.25;;;8.80;;
20454;SDS011;10386;54.314;10.022;2023-09-18T00:39:56;15.57;;;9.17;;
20454;SDS011;10386;54.314;10.022;2023-09-18T00:42:23;12.38;;;8.52;;
20454;SDS011;10386;54.314;10.022;2023-09-18T00:44:50;14.73;;;8.52;;
20454;SDS011;10386;54.314;10.022;2023-09-18T00:47:17;13.25;;;9.15;;
20454;SDS011;10386;54.314;10.022;2023-09-18T00:49:45;12.55;;;8.63;;
20454;SDS011;10386;54.314;10.022;2023-09-18T00:52:15;16.80;;;9.50;;
20454;SDS011;10386;54.314;10.022;2023-09-18T00:54:45;12.37;;;8.47;;
20454;SDS011;10386;54.314;10.022;2023-09-18T00:57:14;12.02;;;8.77;;
20454;SDS011;10386;54.314;10.022;2023-09-18T00:59:42;19.77;;;9.07;;
20454;SDS011;10386;54.314;10.022;2023-09-18T01:02:08;16.02;;;9.40;;
20454;SDS011;10386;54.314;10.022;2023-09-18T01:04:36;13.60;;;9.00;;
20454;SDS011;10386;54.314;10.022;2023-09-18T01:07:03;14.07;;;8.50;;
20454;SDS011;10386;54.314;10.022;2023-09-18T01:09:31;13.48;;;8.93;;
20454;SDS011;10386;54.314;10.022;2023-09-18T01:14:40;11.90;;;8.33;;
20454;SDS011;10386;54.314;10.022;2023-09-18T01:17:12;13.30;;;8.63;;
20454;SDS011;10386;54.314;10.022;2023-09-18T01:19:42;13.40;;;8.83;;
20454;SDS011;10386;54.314;10.022;2023-09-18T01:22:17;12.48;;;8.60;;
20454;SDS011;10386;54.314;10.022;2023-09-18T01:24:46;15.00;;;9.20;;
20454;SDS011;10386;54.314;10.022;2023-09-18T01:27:15;11.35;;;8.30;;
20454;SDS011;10386;54.314;10.022;2023-09-18T01:29:46;14.57;;;9.07;;
20454;SDS011;10386;54.314;10.022;2023-09-18T01:32:14;14.03;;;8.63;;
20454;SDS011;10386;54.314;10.022;2023-09-18T01:34:48;12.57;;;8.43;;
20454;SDS011;10386;54.314;10.022;2023-09-18T01:37:19;11.50;;;9.03;;
20454;SDS011;10386;54.314;10.022;2023-09-18T01:39:48;13.70;;;8.77;;
20454;SDS011;10386;54.314;10.022;2023-09-18T01:42:17;14.38;;;9.32;;
20454;SDS011;10386;54.314;10.022;2023-09-18T01:44:44;17.90;;;9.05;;
20454;SDS011;10386;54.314;10.022;2023-09-18T01:47:14;14.97;;;8.93;;
20454;SDS011;10386;54.314;10.022;2023-09-18T01:49:44;14.50;;;8.67;;
20454;SDS011;10386;54.314;10.022;2023-09-18T01:52:15;13.63;;;8.67;;
20454;SDS011;10386;54.314;10.022;2023-09-18T01:54:42;13.27;;;8.57;;
20454;SDS011;10386;54.314;10.022;2023-09-18T01:57:09;12.20;;;9.18;;
20454;SDS011;10386;54.314;10.022;2023-09-18T01:59:35;12.50;;;8.67;;
20454;SDS011;10386;54.314;10.022;2023-09-18T02:02:04;14.70;;;9.33;;
20454;SDS011;10386;54.314;10.022;2023-09-18T02:04:34;12.47;;;8.07;;
20454;SDS011;10386;54.314;10.022;2023-09-18T02:07:21;13.47;;;8.83;;
20454;SDS011;10386;54.314;10.022;2023-09-18T02:09:48;14.03;;;9.07;;
20454;SDS011;10386;54.314;10.022;2023-09-18T02:12:15;15.23;;;8.80;;
20454;SDS011;10386;54.314;10.022;2023-09-18T02:14:44;14.00;;;9.03;;
20454;SDS011;10386;54.314;10.022;2023-09-18T02:17:12;12.25;;;8.50;;
20454;SDS011;10386;54.314;10.022;2023-09-18T02:19:39;13.00;;;9.13;;
20454;SDS011;10386;54.314;10.022;2023-09-18T02:22:05;13.87;;;9.30;;
20454;SDS011;10386;54.314;10.022;2023-09-18T02:24:33;14.07;;;9.37;;
20454;SDS011;10386;54.314;10.022;2023-09-18T02:27:03;13.63;;;9.30;;
20454;SDS011;10386;54.314;10.022;2023-09-18T02:29:30;17.83;;;8.85;;
20454;SDS011;10386;54.314;10.022;2023-09-18T02:31:57;14.33;;;9.30;;
20454;SDS011;10386;54.314;10.022;2023-09-18T02:34:24;14.43;;;9.65;;
20454;SDS011;10386;54.314;10.022;2023-09-18T02:36:51;15.00;;;9.17;;
20454;SDS011;10386;54.314;10.022;2023-09-18T02:39:18;12.87;;;9.07;;
20454;SDS011;10386;54.314;10.022;2023-09-18T02:41:45;15.73;;;9.23;;
20454;SDS011;10386;54.314;10.022;2023-09-18T02:44:11;14.50;;;9.00;;
20454;SDS011;10386;54.314;10.022;2023-09-18T02:46:39;15.17;;;9.07;;
20454;SDS011;10386;54.314;10.022;2023-09-18T02:49:08;12.83;;;9.03;;
20454;SDS011;10386;54.314;10.022;2023-09-18T02:51:35;17.00;;;9.50;;
20454;SDS011;10386;54.314;10.022;2023-09-18T02:54:01;11.03;;;8.80;;
20454;SDS011;10386;54.314;10.022;2023-09-18T02:56:29;13.40;;;9.70;;
20454;SDS011;10386;54.314;10.022;2023-09-18T02:58:55;14.43;;;9.03;;
20454;SDS011;10386;54.314;10.022;2023-09-18T03:01:22;13.43;;;9.07;;
20454;SDS011;10386;54.314;10.022;2023-09-18T03:03:49;14.52;;;9.15;;
20454;SDS011;10386;54.314;10.022;2023-09-18T03:06:16;13.33;;;8.83;;
20454;SDS011;10386;54.314;10.022;2023-09-18T03:08:43;12.65;;;8.82;;
20454;SDS011;10386;54.314;10.022;2023-09-18T03:11:14;15.57;;;8.63;;
20454;SDS011;10386;54.314;10.022;2023-09-18T03:13:43;13.80;;;9.43;;
20454;SDS011;10386;54.314;10.022;2023-09-18T03:16:12;17.58;;;9.45;;
20454;SDS011;10386;54.314;10.022;2023-09-18T03:18:39;12.50;;;9.00;;
20454;SDS011;10386;54.314;10.022;2023-09-18T03:21:07;11.85;;;8.70;;
20454;SDS011;10386;54.314;10.022;2023-09-18T03:23:34;13.90;;;9.10;;
20454;SDS011;10386;54.314;10.022;2023-09-18T03:26:02;12.33;;;8.87;;
20454;SDS011;10386;54.314;10.022;2023-09-18T03:28:29;14.63;;;9.07;;
20454;SDS011;10386;54.314;10.022;2023-09-18T03:30:57;11.25;;;8.23;;
20454;SDS011;10386;54.314;10.022;2023-09-18T03:33:24;14.80;;;9.00;;
20454;SDS011;10386;54.314;10.022;2023-09-18T03:35:52;12.37;;;8.47;;
20454;SDS011;10386;54.314;10.022;2023-09-18T03:38:21;13.67;;;8.50;;
20454;SDS011;10386;54.314;10.022;2023-09-18T03:40:48;14.15;;;8.68;;
20454;SDS011;10386;54.314;10.022;2023-09-18T03:43:16;14.02;;;8.88;;
20454;SDS011;10386;54.314;10.022;2023-09-18T03:45:42;13.53;;;8.30;;
20454;SDS011;10386;54.314;10.022;2023-09-18T03:48:10;11.90;;;8.52;;
20454;SDS011;10386;54.314;10.022;2023-09-18T03:50:38;15.15;;;8.88;;
20454;SDS011;10386;54.314;10.022;2023-09-18T03:53:06;10.23;;;8.20;;
20454;SDS011;10386;54.314;10.022;2023-09-18T03:55:33;9.77;;;8.35;;
20454;SDS011;10386;54.314;10.022;2023-09-18T03:58:00;15.00;;;8.15;;
20454;SDS011;10386;54.314;10.022;2023-09-18T04:00:27;10.93;;;8.40;;
20454;SDS011;10386;54.314;10.022;2023-09-18T04:02:54;11.52;;;8.57;;
20454;SDS011;10386;54.314;10.022;2023-09-18T04:05:21;10.70;;;8.27;;
20454;SDS011;10386;54.314;10.022;2023-09-18T04:07:48;12.15;;;8.40;;
20454;SDS011;10386;54.314;10.022;2023-09-18T04:10:15;11.90;;;8.50;;
20454;SDS011;10386;54.314;10.022;2023-09-18T04:12:49;11.80;;;8.13;;
20454;SDS011;10386;54.314;10.022;2023-09-18T04:15:17;11.60;;;8.20;;
20454;SDS011;10386;54.314;10.022;2023-09-18T04:17:45;11.98;;;8.25;;
20454;SDS011;10386;54.314;10.022;2023-09-18T04:20:12;14.27;;;8.17;;
20454;SDS011;10386;54.314;10.022;2023-09-18T04:22:46;12.35;;;9.02;;
20454;SDS011;10386;54.314;10.022;2023-09-18T04:25:17;11.75;;;9.15;;
20454;SDS011;10386;54.314;10.022;2023-09-18T04:27:46;13.07;;;8.70;;
20454;SDS011;10386;54.314;10.022;2023-09-18T04:30:16;13.60;;;8.90;;
20454;SDS011;10386;54.314;10.022;2023-09-18T04:32:46;12.70;;;9.27;;
20454;SDS011;10386;54.314;10.022;2023-09-18T04:35:14;11.85;;;9.27;;
20454;SDS011;10386;54.314;10.022;2023-09-18T04:37:40;12.23;;;8.35;;
20454;SDS011;10386;54.314;10.022;2023-09-18T04:40:07;14.67;;;8.40;;
20454;SDS011;10386;54.314;10.022;2023-09-18T04:42:38;11.47;;;8.40;;
20454;SDS011;10386;54.314;10.022;2023-09-18T04:45:06;13.35;;;8.30;;
20454;SDS011;10386;54.314;10.022;2023-09-18T04:47:35;11.48;;;8.73;;
20454;SDS011;10386;54.314;10.022;2023-09-18T04:50:02;14.05;;;7.97;;
20454;SDS011;10386;54.314;10.022;2023-09-18T04:52:36;16.52;;;8.75;;
20454;SDS011;10386;54.314;10.022;2023-09-18T04:55:03;10.80;;;8.40;;
20454;SDS011;10386;54.314;10.022;2023-09-18T04:57:32;11.73;;;9.05;;
20454;SDS011;10386;54.314;10.022;2023-09-18T04:59:59;11.63;;;8.85;;
20454;SDS011;10386;54.314;10.022;2023-09-18T05:02:42;14.63;;;8.50;;
20454;SDS011;10386;54.314;10.022;2023-09-18T05:05:09;10.70;;;8.23;;
20454;SDS011;10386;54.314;10.022;2023-09-18T05:07:36;11.17;;;8.37;;
20454;SDS011;10386;54.314;10.022;2023-09-18T05:10:03;11.83;;;8.80;;
20454;SDS011;10386;54.314;10.022;2023-09-18T05:12:33;16.65;;;9.35;;
20454;SDS011;10386;54.314;10.022;2023-09-18T05:15:00;12.17;;;9.03;;
20454;SDS011;10386;54.314;10.022;2023-09-18T05:17:43;14.43;;;9.40;;
20454;SDS011;10386;54.314;10.022;2023-09-18T05:20:19;13.77;;;8.93;;
20454;SDS011;10386;54.314;10.022;2023-09-18T05:22:45;11.40;;;8.67;;
20454;SDS011;10386;54.314;10.022;2023-09-18T05:25:12;11.57;;;8.07;;
20454;SDS011;10386;54.314;10.022;2023-09-18T05:27:43;12.57;;;8.43;;
20454;SDS011;10386;54.314;10.022;2023-09-18T05:30:14;13.40;;;8.27;;
20454;SDS011;10386;54.314;10.022;2023-09-18T05:32:43;14.97;;;9.10;;
20454;SDS011;10386;54.314;10.022;2023-09-18T05:35:11;15.65;;;7.97;;
20454;SDS011;10386;54.314;10.022;2023-09-18T05:37:40;13.82;;;8.88;;
20454;SDS011;10386;54.314;10.022;2023-09-18T05:40:08;10.50;;;8.50;;
20454;SDS011;10386;54.314;10.022;2023-09-18T05:42:37;11.73;;;8.20;;
20454;SDS011;10386;54.314;10.022;2023-09-18T05:45:05;12.35;;;8.40;;
20454;SDS011;10386;54.314;10.022;2023-09-18T05:47:32;10.35;;;7.85;;
20454;SDS011;10386;54.314;10.022;2023-09-18T05:50:00;12.13;;;8.55;;
20454;SDS011;10386;54.314;10.022;2023-09-18T05:52:27;12.25;;;8.50;;
20454;SDS011;10386;54.314;10.022;2023-09-18T05:54:53;9.77;;;7.70;;
20454;SDS011;10386;54.314;10.022;2023-09-18T05:57:20;11.88;;;8.38;;
20454;SDS011;10386;54.314;10.022;2023-09-18T05:59:47;15.32;;;8.50;;
20454;SDS011;10386;54.314;10.022;2023-09-18T06:02:14;12.60;;;7.85;;
20454;SDS011;10386;54.314;10.022;2023-09-18T06:04:43;11.65;;;8.25;;
20454;SDS011;10386;54.314;10.022;2023-09-18T06:07:09;11.57;;;7.70;;
20454;SDS011;10386;54.314;10.022;2023-09-18T06:09:36;14.48;;;8.68;;
20454;SDS011;10386;54.314;10.022;2023-09-18T06:12:04;10.40;;;7.95;;
20454;SDS011;10386;54.314;10.022;2023-09-18T06:14:31;11.85;;;7.80;;
20454;SDS011;10386;54.314;10.022;2023-09-18T06:17:01;10.50;;;7.95;;
20454;SDS011;10386;54.314;10.022;2023-09-18T06:19:28;15.68;;;8.63;;
20454;SDS011;10386;54.314;10.022;2023-09-18T06:21:55;10.52;;;7.70;;
20454;SDS011;10386;54.314;10.022;2023-09-18T06:24:21;15.45;;;8.05;;
20454;SDS011;10386;54.314;10.022;2023-09-18T06:26:48;10.00;;;7.22;;
20454;SDS011;10386;54.314;10.022;2023-09-18T06:29:15;10.23;;;7.83;;
20454;SDS011;10386;54.314;10.022;2023-09-18T06:31:42;10.88;;;7.65;;
20454;SDS011;10386;54.314;10.022;2023-09-18T06:34:08;10.10;;;7.25;;
20454;SDS011;10386;54.314;10.022;2023-09-18T06:36:35;11.30;;;7.70;;
20454;SDS011;10386;54.314;10.022;2023-09-18T06:39:02;14.13;;;8.00;;
20454;SDS011;10386;54.314;10.022;2023-09-18T06:41:32;13.63;;;7.60;;
20454;SDS011;10386;54.314;10.022;2023-09-18T06:43:59;13.48;;;7.88;;
20454;SDS011;10386;54.314;10.022;2023-09-18T06:46:29;12.50;;;7.95;;
20454;SDS011;10386;54.314;10.022;2023-09-18T06:48:56;10.32;;;7.28;;
20454;SDS011;10386;54.314;10.022;2023-09-18T06:51:23;9.63;;;6.60;;
20454;SDS011;10386;54.314;10.022;2023-09-18T06:54:07;9.05;;;6.80;;
20454;SDS011;10386;54.314;10.022;2023-09-18T06:56:34;9.38;;;6.90;;
20454;SDS011;10386;54.314;10.022;2023-09-18T06:59:01;9.70;;;6.55;;
20454;SDS011;10386;54.314;10.022;2023-09-18T07:01:28;12.35;;;6.55;;
20454;SDS011;10386;54.314;10.022;2023-09-18T07:03:56;12.70;;;6.80;;
20454;SDS011;10386;54.314;10.022;2023-09-18T07:06:25;10.95;;;7.38;;
20454;SDS011;10386;54.314;10.022;2023-09-18T07:08:52;10.40;;;6.35;;
20454;SDS011;10386;54.314;10.022;2023-09-18T07:11:20;9.55;;;6.57;;
20454;SDS011;10386;54.314;10.022;2023-09-18T07:13:50;9.23;;;6.40;;
20454;SDS011;10386;54.314;10.022;2023-09-18T07:16:17;7.55;;;6.65;;
20454;SDS011;10386;54.314;10.022;2023-09-18T07:18:46;8.27;;;6.25;;
20454;SDS011;10386;54.314;10.022;2023-09-18T07:21:13;9.23;;;6.20;;
20454;SDS011;10386;54.314;10.022;2023-09-18T07:23:40;10.60;;;7.13;;
20454;SDS011;10386;54.314;10.022;2023-09-18T07:26:07;10.35;;;6.70;;
20454;SDS011;10386;54.314;10.022;2023-09-18T07:28:34;8.35;;;6.53;;
20454;SDS011;10386;54.314;10.022;2023-09-18T07:31:08;9.13;;;6.43;;
20454;SDS011;10386;54.314;10.022;2023-09-18T07:33:36;6.85;;;6.15;;
20454;SDS011;10386;54.314;10.022;2023-09-18T07:36:03;11.90;;;7.13;;
20454;SDS011;10386;54.314;10.022;2023-09-18T07:38:31;10.35;;;7.18;;
20454;SDS011;10386;54.314;10.022;2023-09-18T07:40:58;8.98;;;6.30;;
20454;SDS011;10386;54.314;10.022;2023-09-18T07:43:24;11.05;;;7.38;;
20454;SDS011;10386;54.314;10.022;2023-09-18T07:45:52;9.25;;;7.22;;
20454;SDS011;10386;54.314;10.022;2023-09-18T07:48:22;7.68;;;6.05;;
20454;SDS011;10386;54.314;10.022;2023-09-18T07:50:49;8.73;;;6.63;;
20454;SDS011;10386;54.314;10.022;2023-09-18T07:53:18;13.05;;;7.25;;
20454;SDS011;10386;54.314;10.022;2023-09-18T07:55:45;10.05;;;6.43;;
20454;SDS011;10386;54.314;10.022;2023-09-18T07:58:15;8.88;;;6.40;;
20454;SDS011;10386;54.314;10.022;2023-09-18T08:00:43;12.80;;;7.28;;
20454;SDS011;10386;54.314;10.022;2023-09-18T08:03:10;9.45;;;6.32;;
20454;SDS011;10386;54.314;10.022;2023-09-18T08:05:37;8.93;;;6.07;;
20454;SDS011;10386;54.314;10.022;2023-09-18T08:08:04;11.77;;;6.45;;
20454;SDS011;10386;54.314;10.022;2023-09-18T08:10:36;11.75;;;6.78;;
20454;SDS011;10386;54.314;10.022;2023-09-18T08:13:03;10.27;;;6.88;;
20454;SDS011;10386;54.314;10.022;2023-09-18T08:15:30;8.82;;;6.30;;
20454;SDS011;10386;54.314;10.022;2023-09-18T08:17:59;9.88;;;6.30;;
20454;SDS011;10386;54.314;10.022;2023-09-18T08:20:26;7.90;;;5.97;;
20454;SDS011;10386;54.314;10.022;2023-09-18T08:22:54;7.45;;;6.07;;
20454;SDS011;10386;54.314;10.022;2023-09-18T08:25:23;11.18;;;6.43;;
20454;SDS011;10386;54.314;10.022;2023-09-18T08:27:50;9.63;;;6.32;;
20454;SDS011;10386;54.314;10.022;2023-09-18T08:30:17;8.00;;;5.65;;
20454;SDS011;10386;54.314;10.022;2023-09-18T08:32:47;8.85;;;6.30;;
20454;SDS011;10386;54.314;10.022;2023-09-18T08:35:14;6.72;;;5.72;;
20454;SDS011;10386;54.314;10.022;2023-09-18T08:37:41;10.48;;;5.75;;
20454;SDS011;10386;54.314;10.022;2023-09-18T08:40:12;8.30;;;6.20;;
20454;SDS011;10386;54.314;10.022;2023-09-18T08:42:46;11.32;;;6.15;;
20454;SDS011;10386;54.314;10.022;2023-09-18T08:45:15;9.48;;;5.90;;
20454;SDS011;10386;54.314;10.022;2023-09-18T08:47:49;12.30;;;5.95;;
20454;SDS011;10386;54.314;10.022;2023-09-18T08:50:17;9.70;;;5.90;;
20454;SDS011;10386;54.314;10.022;2023-09-18T08:52:46;8.80;;;5.88;;
20454;SDS011;10386;54.314;10.022;2023-09-18T08:55:15;11.27;;;5.78;;
20454;SDS011;10386;54.314;10.022;2023-09-18T08:57:42;7.20;;;6.05;;
20454;SDS011;10386;54.314;10.022;2023-09-18T09:00:11;7.82;;;6.28;;
20454;SDS011;10386;54.314;10.022;2023-09-18T09:02:43;9.82;;;6.32;;
20454;SDS011;10386;54.314;10.022;2023-09-18T09:05:11;8.20;;;6.00;;
20454;SDS011;10386;54.314;10.022;2023-09-18T09:07:38;10.18;;;5.68;;
20454;SDS011;10386;54.314;10.022;2023-09-18T09:10:05;9.52;;;6.18;;
20454;SDS011;10386;54.314;10.022;2023-09-18T09:15:15;7.20;;;5.53;;
20454;SDS011;10386;54.314;10.022;2023-09-18T09:17:43;7.78;;;5.97;;
20454;SDS011;10386;54.314;10.022;2023-09-18T09:20:13;10.75;;;6.50;;
20454;SDS011;10386;54.314;10.022;2023-09-18T09:22:41;11.60;;;8.05;;
20454;SDS011;10386;54.314;10.022;2023-09-18T09:25:22;13.52;;;8.68;;
20454;SDS011;10386;54.314;10.022;2023-09-18T09:27:53;8.77;;;5.88;;
20454;SDS011;10386;54.314;10.022;2023-09-18T09:30:22;6.50;;;5.60;;
20454;SDS011;10386;54.314;10.022;2023-09-18T09:32:51;8.25;;;5.18;;
20454;SDS011;10386;54.314;10.022;2023-09-18T09:35:22;6.18;;;5.57;;
20454;SDS011;10386;54.314;10.022;2023-09-18T09:37:50;7.63;;;5.50;;
20454;SDS011;10386;54.314;10.022;2023-09-18T09:40:19;8.02;;;5.30;;
20454;SDS011;10386;54.314;10.022;2023-09-18T09:42:46;6.07;;;5.13;;
20454;SDS011;10386;54.314;10.022;2023-09-18T09:45:14;5.93;;;4.78;;
20454;SDS011;10386;54.314;10.022;2023-09-18T09:47:45;5.47;;;4.97;;
20454;SDS011;10386;54.314;10.022;2023-09-18T09:50:15;7.32;;;5.13;;
20454;SDS011;10386;54.314;10.022;2023-09-18T09:52:48;11.27;;;5.00;;
20454;SDS011;10386;54.314;10.022;2023-09-18T09:55:24;9.80;;;5.15;;
20454;SDS011;10386;54.314;10.022;2023-09-18T10:03:29;7.30;;;4.80;;
20454;SDS011;10386;54.314;10.022;2023-09-18T10:05:59;7.70;;;4.95;;
20454;SDS011;10386;54.314;10.022;2023-09-18T10:08:28;6.20;;;4.70;;
20454;SDS011;10386;54.314;10.022;2023-09-18T10:11:00;8.48;;;4.95;;
20454;SDS011;10386;54.314;10.022;2023-09-18T10:13:47;5.45;;;4.88;;
20454;SDS011;10386;54.314;10.022;2023-09-18T10:16:17;20.70;;;5.38;;
20454;SDS011;10386;54.314;10.022;2023-09-18T10:18:51;5.18;;;4.55;;
20454;SDS011;10386;54.314;10.022;2023-09-18T10:21:51;5.00;;;4.40;;
20454;SDS011;10386;54.314;10.022;2023-09-18T10:24:33;5.03;;;4.53;;
20454;SDS011;10386;54.314;10.022;2023-09-18T10:27:05;5.57;;;4.80;;
20454;SDS011;10386;54.314;10.022;2023-09-18T10:29:33;8.82;;;4.75;;
20454;SDS011;10386;54.314;10.022;2023-09-18T10:32:05;7.22;;;4.75;;
20454;SDS011;10386;54.314;10.022;2023-09-18T10:34:35;5.35;;;4.57;;
20454;SDS011;10386;54.314;10.022;2023-09-18T10:37:03;7.93;;;4.47;;
20454;SDS011;10386;54.314;10.022;2023-09-18T10:39:37;6.70;;;4.95;;
20454;SDS011;10386;54.314;10.022;2023-09-18T10:42:08;7.45;;;4.53;;
20454;SDS011;10386;54.314;10.022;2023-09-18T10:44:35;8.15;;;5.10;;
20454;SDS011;10386;54.314;10.022;2023-09-18T10:47:07;5.80;;;4.40;;
20454;SDS011;10386;54.314;10.022;2023-09-18T10:49:36;7.97;;;5.05;;
20454;SDS011;10386;54.314;10.022;2023-09-18T10:52:04;6.97;;;4.82;;
20454;SDS011;10386;54.314;10.022;2023-09-18T10:54:31;7.85;;;5.00;;
20454;SDS011;10386;54.314;10.022;2023-09-18T10:56:59;6.75;;;4.93;;
20454;SDS011;10386;54.314;10.022;2023-09-18T10:59:28;7.40;;;4.57;;
20454;SDS011;10386;54.314;10.022;2023-09-18T11:01:56;9.38;;;5.35;;
20454;SDS011;10386;54.314;10.022;2023-09-18T11:04:23;7.90;;;4.70;;
20454;SDS011;10386;54.314;10.022;2023-09-18T11:09:25;5.35;;;4.82;;
20454;SDS011;10386;54.314;10.022;2023-09-18T11:20:04;5.30;;;4.53;;
20454;SDS011;10386;54.314;10.022;2023-09-18T11:22:36;7.80;;;5.53;;
20454;SDS011;10386;54.314;10.022;2023-09-18T11:28:01;8.20;;;5.25;;
20454;SDS011;10386;54.314;10.022;2023-09-18T11:30:29;7.82;;;4.80;;
20454;SDS011;10386;54.314;10.022;2023-09-18T11:32:56;10.82;;;5.15;;
20454;SDS011;10386;54.314;10.022;2023-09-18T11:35:24;7.47;;;4.50;;
20454;SDS011;10386;54.314;10.022;2023-09-18T11:38:08;7.80;;;4.50;;
20454;SDS011;10386;54.314;10.022;2023-09-18T11:40:37;8.13;;;4.63;;
20454;SDS011;10386;54.314;10.022;2023-09-18T11:43:28;12.23;;;4.78;;
20454;SDS011;10386;54.314;10.022;2023-09-18T11:46:00;9.32;;;5.10;;
20454;SDS011;10386;54.314;10.022;2023-09-18T11:48:30;8.32;;;5.18;;
20454;SDS011;10386;54.314;10.022;2023-09-18T11:51:00;7.63;;;4.93;;
20454;SDS011;10386;54.314;10.022;2023-09-18T11:53:29;7.68;;;4.82;;
20454;SDS011;10386;54.314;10.022;2023-09-18T11:56:04;8.32;;;4.93;;
20454;SDS011;10386;54.314;10.022;2023-09-18T11:58:49;8.45;;;5.40;;
20454;SDS011;10386;54.314;10.022;2023-09-18T12:01:18;8.23;;;5.38;;
20454;SDS011;10386;54.314;10.022;2023-09-18T12:03:45;10.52;;;6.10;;
20454;SDS011;10386;54.314;10.022;2023-09-18T12:06:14;11.57;;;5.50;;
20454;SDS011;10386;54.314;10.022;2023-09-18T12:08:42;7.70;;;6.00;;
20454;SDS011;10386;54.314;10.022;2023-09-18T12:11:09;9.30;;;6.38;;
20454;SDS011;10386;54.314;10.022;2023-09-18T12:13:35;11.45;;;6.18;;
20454;SDS011;10386;54.314;10.022;2023-09-18T12:16:04;10.88;;;6.75;;
20454;SDS011;10386;54.314;10.022;2023-09-18T12:18:36;9.93;;;6.25;;
20454;SDS011;10386;54.314;10.022;2023-09-18T12:21:06;8.50;;;5.85;;
20454;SDS011;10386;54.314;10.022;2023-09-18T12:23:37;10.68;;;5.75;;
20454;SDS011;10386;54.314;10.022;2023-09-18T12:26:05;9.30;;;5.00;;
20454;SDS011;10386;54.314;10.022;2023-09-18T12:28:37;11.60;;;5.40;;
20454;SDS011;10386;54.314;10.022;2023-09-18T12:31:05;9.32;;;5.60;;
20454;SDS011;10386;54.314;10.022;2023-09-18T12:33:33;9.70;;;5.28;;
20454;SDS011;10386;54.314;10.022;2023-09-18T12:36:06;13.02;;;5.40;;
20454;SDS011;10386;54.314;10.022;2023-09-18T12:38:34;11.82;;;5.45;;
20454;SDS011;10386;54.314;10.022;2023-09-18T12:41:04;7.13;;;4.93;;
20454;SDS011;10386;54.314;10.022;2023-09-18T12:43:39;9.23;;;5.28;;
20454;SDS011;10386;54.314;10.022;2023-09-18T12:46:08;8.13;;;5.22;;
20454;SDS011;10386;54.314;10.022;2023-09-18T12:48:39;7.93;;;4.88;;
20454;SDS011;10386;54.314;10.022;2023-09-18T12:51:13;10.00;;;5.35;;
20454;SDS011;10386;54.314;10.022;2023-09-18T12:53:41;10.10;;;5.53;;
20454;SDS011;10386;54.314;10.022;2023-09-18T12:56:13;7.65;;;4.85;;
20454;SDS011;10386;54.314;10.022;2023-09-18T12:58:43;11.57;;;5.03;;
20454;SDS011;10386;54.314;10.022;2023-09-18T13:01:30;8.32;;;5.20;;
20454;SDS011;10386;54.314;10.022;2023-09-18T13:03:57;7.32;;;5.10;;
20454;SDS011;10386;54.314;10.022;2023-09-18T13:06:23;9.43;;;5.30;;
20454;SDS011;10386;54.314;10.022;2023-09-18T13:08:51;11.80;;;5.93;;
20454;SDS011;10386;54.314;10.022;2023-09-18T13:11:20;13.45;;;5.60;;
20454;SDS011;10386;54.314;10.022;2023-09-18T13:13:47;8.35;;;4.93;;
20454;SDS011;10386;54.314;10.022;2023-09-18T13:16:23;7.03;;;4.63;;
20454;SDS011;10386;54.314;10.022;2023-09-18T13:18:50;9.50;;;5.30;;
20454;SDS011;10386;54.314;10.022;2023-09-18T13:21:19;9.18;;;5.00;;
20454;SDS011;10386;54.314;10.022;2023-09-18T13:23:50;7.35;;;5.15;;
20454;SDS011;10386;54.314;10.022;2023-09-18T13:26:16;6.55;;;4.85;;
20454;SDS011;10386;54.314;10.022;2023-09-18T13:28:44;8.90;;;4.63;;
20454;SDS011;10386;54.314;10.022;2023-09-18T13:31:10;7.45;;;4.43;;
20454;SDS011;10386;54.314;10.022;2023-09-18T13:33:37;6.63;;;4.68;;
20454;SDS011;10386;54.314;10.022;2023-09-18T13:36:06;9.43;;;5.03;;
20454;SDS011;10386;54.314;10.022;2023-09-18T13:38:33;6.85;;;4.75;;
20454;SDS011;10386;54.314;10.022;2023-09-18T13:41:00;11.07;;;4.82;;
20454;SDS011;10386;54.314;10.022;2023-09-18T13:43:27;7.80;;;4.10;;
20454;SDS011;10386;54.314;10.022;2023-09-18T13:45:54;5.43;;;4.38;;
20454;SDS011;10386;54.314;10.022;2023-09-18T13:48:24;10.82;;;4.53;;
20454;SDS011;10386;54.314;10.022;2023-09-18T13:50:51;5.38;;;4.57;;
20454;SDS011;10386;54.314;10.022;2023-09-18T13:53:19;6.10;;;4.50;;
20454;SDS011;10386;54.314;10.022;2023-09-18T13:55:46;9.98;;;4.78;;
20454;SDS011;10386;54.314;10.022;2023-09-18T13:58:13;7.57;;;4.47;;
20454;SDS011;10386;54.314;10.022;2023-09-18T14:00:40;8.50;;;5.20;;
20454;SDS011;10386;54.314;10.022;2023-09-18T14:03:09;7.85;;;4.78;;
20454;SDS011;10386;54.314;10.022;2023-09-18T14:05:37;11.38;;;4.75;;
20454;SDS011;10386;54.314;10.022;2023-09-18T14:08:05;11.73;;;5.38;;
20454;SDS011;10386;54.314;10.022;2023-09-18T14:10:32;8.50;;;4.78;;
20454;SDS011;10386;54.314;10.022;2023-09-18T14:12:58;9.25;;;4.97;;
20454;SDS011;10386;54.314;10.022;2023-09-18T14:15:28;13.90;;;5.22;;
20454;SDS011;10386;54.314;10.022;2023-09-18T14:17:56;7.45;;;4.47;;
20454;SDS011;10386;54.314;10.022;2023-09-18T14:20:23;11.68;;;5.10;;
20454;SDS011;10386;54.314;10.022;2023-09-18T14:22:50;8.80;;;5.22;;
20454;SDS011;10386;54.314;10.022;2023-09-18T14:25:17;8.25;;;5.45;;
20454;SDS011;10386;54.314;10.022;2023-09-18T14:27:46;14.07;;;5.57;;
20454;SDS011;10386;54.314;10.022;2023-09-18T14:30:13;11.95;;;5.13;;
20454;SDS011;10386;54.314;10.022;2023-09-18T14:32:41;11.55;;;5.55;;
20454;SDS011;10386;54.314;10.022;2023-09-18T14:35:08;7.60;;;5.72;;
20454;SDS011;10386;54.314;10.022;2023-09-18T14:37:36;11.13;;;5.63;;
20454;SDS011;10386;54.314;10.022;2023-09-18T14:40:03;9.32;;;6.03;;
20454;SDS011;10386;54.314;10.022;2023-09-18T14:42:31;11.48;;;5.72;;
20454;SDS011;10386;54.314;10.022;2023-09-18T14:44:58;7.32;;;5.20;;
20454;SDS011;10386;54.314;10.022;2023-09-18T14:47:25;13.50;;;5.78;;
20454;SDS011;10386;54.314;10.022;2023-09-18T14:49:51;11.73;;;5.88;;
20454;SDS011;10386;54.314;10.022;2023-09-18T14:52:18;9.80;;;5.50;;
20454;SDS011;10386;54.314;10.022;2023-09-18T14:54:47;8.85;;;5.55;;
20454;SDS011;10386;54.314;10.022;2023-09-18T14:57:15;12.27;;;6.07;;
20454;SDS011;10386;54.314;10.022;2023-09-18T14:59:42;9.63;;;5.70;;